sensor_id;sensor_type;location;lat;lon;timestamp;P1;durP1;ratioP1;P2;durP2;ratioP2
33421;SDS011;19763;55.798;37.782;2023-08-30T00:00:41;12.80;;;11.00;;
33421;SDS011;19763;55.798;37.782;2023-08-30T00:03:07;13.90;;;11.30;;
33421;SDS011;19763;55.798;37.782;2023-08-30T00:05:33;12.82;;;11.20;;
33421;SDS011;19763;55.798;37.782;2023-08-30T00:07:59;13.05;;;11.52;;
33421;SDS011;19763;55.798;37.782;2023-08-30T00:10:25;11.35;;;10.13;;
33421;SDS011;19763;55.798;37.782;2023-08-30T00:12:50;14.02;;;11.55;;
33421;SDS011;19763;55.798;37.782;2023-08-30T00:15:16;12.90;;;11.13;;
33421;SDS011;19763;55.798;37.782;2023-08-30T00:17:42;13.52;;;12.02;;
33421;SDS011;19763;55.798;37.782;2023-08-30T00:20:07;13.82;;;11.20;;
33421;SDS011;19763;55.798;37.782;2023-08-30T00:22:37;13.85;;;11.27;;
33421;SDS011;19763;55.798;37.782;2023-08-30T00:25:03;13.85;;;11.50;;
33421;SDS011;19763;55.798;37.782;2023-08-30T00:27:29;13.85;;;12.32;;
33421;SDS011;19763;55.798;37.782;2023-08-30T00:29:55;13.75;;;11.60;;
33421;SDS011;19763;55.798;37.782;2023-08-30T00:32:20;13.90;;;12.18;;
33421;SDS011;19763;55.798;37.782;2023-08-30T00:34:49;12.57;;;10.65;;
33421;SDS011;19763;55.798;37.782;2023-08-30T00:37:16;12.95;;;11.48;;
33421;SDS011;19763;55.798;37.782;2023-08-30T00:39:42;13.27;;;11.43;;
33421;SDS011;19763;55.798;37.782;2023-08-30T00:42:08;12.27;;;10.63;;
33421;SDS011;19763;55.798;37.782;2023-08-30T00:44:34;13.27;;;10.40;;
33421;SDS011;19763;55.798;37.782;2023-08-30T00:47:00;13.68;;;12.02;;
33421;SDS011;19763;55.798;37.782;2023-08-30T00:49:30;12.93;;;11.63;;
33421;SDS011;19763;55.798;37.782;2023-08-30T00:51:57;14.73;;;13.02;;
33421;SDS011;19763;55.798;37.782;2023-08-30T00:54:25;13.05;;;11.65;;
33421;SDS011;19763;55.798;37.782;2023-08-30T00:56:51;15.45;;;12.18;;
33421;SDS011;19763;55.798;37.782;2023-08-30T00:59:17;13.80;;;12.18;;
33421;SDS011;19763;55.798;37.782;2023-08-30T01:01:44;11.40;;;10.30;;
33421;SDS011;19763;55.798;37.782;2023-08-30T01:04:10;12.70;;;9.82;;
33421;SDS011;19763;55.798;37.782;2023-08-30T01:06:36;11.60;;;10.40;;
33421;SDS011;19763;55.798;37.782;2023-08-30T01:09:02;13.98;;;11.60;;
33421;SDS011;19763;55.798;37.782;2023-08-30T01:14:13;11.98;;;10.80;;
33421;SDS011;19763;55.798;37.782;2023-08-30T01:16:44;12.63;;;11.20;;
33421;SDS011;19763;55.798;37.782;2023-08-30T01:19:15;12.55;;;10.63;;
33421;SDS011;19763;55.798;37.782;2023-08-30T01:21:50;12.40;;;10.73;;
33421;SDS011;19763;55.798;37.782;2023-08-30T01:24:32;13.63;;;12.27;;
33421;SDS011;19763;55.798;37.782;2023-08-30T01:27:11;13.88;;;12.38;;
33421;SDS011;19763;55.798;37.782;2023-08-30T01:29:38;11.93;;;10.73;;
33421;SDS011;19763;55.798;37.782;2023-08-30T01:32:08;13.35;;;10.95;;
33421;SDS011;19763;55.798;37.782;2023-08-30T01:34:35;12.93;;;11.50;;
33421;SDS011;19763;55.798;37.782;2023-08-30T01:37:06;12.07;;;10.82;;
33421;SDS011;19763;55.798;37.782;2023-08-30T01:39:38;11.82;;;10.40;;
33421;SDS011;19763;55.798;37.782;2023-08-30T01:42:07;11.30;;;9.95;;
33421;SDS011;19763;55.798;37.782;2023-08-30T01:44:34;10.48;;;9.38;;
33421;SDS011;19763;55.798;37.782;2023-08-30T01:47:00;12.60;;;10.32;;
33421;SDS011;19763;55.798;37.782;2023-08-30T01:49:28;10.65;;;9.60;;
33421;SDS011;19763;55.798;37.782;2023-08-30T01:51:57;10.48;;;9.43;;
33421;SDS011;19763;55.798;37.782;2023-08-30T01:54:24;10.38;;;9.18;;
33421;SDS011;19763;55.798;37.782;2023-08-30T01:56:51;9.57;;;8.57;;
33421;SDS011;19763;55.798;37.782;2023-08-30T01:59:17;8.90;;;8.00;;
33421;SDS011;19763;55.798;37.782;2023-08-30T02:01:43;9.52;;;8.52;;
33421;SDS011;19763;55.798;37.782;2023-08-30T02:04:08;11.15;;;8.30;;
33421;SDS011;19763;55.798;37.782;2023-08-30T02:06:35;8.70;;;7.63;;
33421;SDS011;19763;55.798;37.782;2023-08-30T02:09:17;8.95;;;8.07;;
33421;SDS011;19763;55.798;37.782;2023-08-30T02:11:50;9.45;;;8.55;;
33421;SDS011;19763;55.798;37.782;2023-08-30T02:14:17;11.45;;;8.18;;
33421;SDS011;19763;55.798;37.782;2023-08-30T02:16:45;7.90;;;7.18;;
33421;SDS011;19763;55.798;37.782;2023-08-30T02:19:12;8.90;;;8.00;;
33421;SDS011;19763;55.798;37.782;2023-08-30T02:21:45;8.73;;;7.85;;
33421;SDS011;19763;55.798;37.782;2023-08-30T02:24:11;8.05;;;7.25;;
33421;SDS011;19763;55.798;37.782;2023-08-30T02:26:37;9.13;;;8.23;;
33421;SDS011;19763;55.798;37.782;2023-08-30T02:29:03;12.15;;;10.35;;
33421;SDS011;19763;55.798;37.782;2023-08-30T02:31:29;8.93;;;8.00;;
33421;SDS011;19763;55.798;37.782;2023-08-30T02:33:54;9.60;;;8.60;;
33421;SDS011;19763;55.798;37.782;2023-08-30T02:36:20;8.63;;;7.82;;
33421;SDS011;19763;55.798;37.782;2023-08-30T02:38:46;7.75;;;6.95;;
33421;SDS011;19763;55.798;37.782;2023-08-30T02:41:11;8.40;;;6.90;;
33421;SDS011;19763;55.798;37.782;2023-08-30T02:43:37;9.00;;;8.00;;
33421;SDS011;19763;55.798;37.782;2023-08-30T02:46:03;7.50;;;6.70;;
33421;SDS011;19763;55.798;37.782;2023-08-30T02:48:30;9.63;;;7.40;;
33421;SDS011;19763;55.798;37.782;2023-08-30T02:50:57;8.98;;;7.65;;
33421;SDS011;19763;55.798;37.782;2023-08-30T02:53:23;8.07;;;7.28;;
33421;SDS011;19763;55.798;37.782;2023-08-30T02:55:48;8.45;;;7.30;;
33421;SDS011;19763;55.798;37.782;2023-08-30T02:58:14;8.20;;;7.38;;
33421;SDS011;19763;55.798;37.782;2023-08-30T03:00:40;7.35;;;6.63;;
33421;SDS011;19763;55.798;37.782;2023-08-30T03:03:06;8.38;;;7.47;;
33421;SDS011;19763;55.798;37.782;2023-08-30T03:05:31;8.32;;;6.82;;
33421;SDS011;19763;55.798;37.782;2023-08-30T03:07:57;8.23;;;7.45;;
33421;SDS011;19763;55.798;37.782;2023-08-30T03:10:23;9.15;;;8.25;;
33421;SDS011;19763;55.798;37.782;2023-08-30T03:12:49;8.50;;;7.60;;
33421;SDS011;19763;55.798;37.782;2023-08-30T03:15:15;9.52;;;7.30;;
33421;SDS011;19763;55.798;37.782;2023-08-30T03:17:41;8.45;;;7.55;;
33421;SDS011;19763;55.798;37.782;2023-08-30T03:20:06;7.68;;;6.85;;
33421;SDS011;19763;55.798;37.782;2023-08-30T03:22:32;11.70;;;8.07;;
33421;SDS011;19763;55.798;37.782;2023-08-30T03:24:58;9.25;;;7.90;;
33421;SDS011;19763;55.798;37.782;2023-08-30T03:27:24;11.07;;;7.85;;
33421;SDS011;19763;55.798;37.782;2023-08-30T03:29:50;9.52;;;8.50;;
33421;SDS011;19763;55.798;37.782;2023-08-30T03:32:16;9.55;;;7.93;;
33421;SDS011;19763;55.798;37.782;2023-08-30T03:34:44;9.80;;;8.07;;
33421;SDS011;19763;55.798;37.782;2023-08-30T03:37:10;8.75;;;7.47;;
33421;SDS011;19763;55.798;37.782;2023-08-30T03:39:37;9.65;;;8.65;;
33421;SDS011;19763;55.798;37.782;2023-08-30T03:42:02;8.10;;;7.13;;
33421;SDS011;19763;55.798;37.782;2023-08-30T03:44:29;8.55;;;5.95;;
33421;SDS011;19763;55.798;37.782;2023-08-30T03:46:54;7.43;;;6.72;;
33421;SDS011;19763;55.798;37.782;2023-08-30T03:49:22;7.78;;;6.25;;
33421;SDS011;19763;55.798;37.782;2023-08-30T03:51:48;7.07;;;6.38;;
33421;SDS011;19763;55.798;37.782;2023-08-30T03:54:13;7.22;;;6.35;;
33421;SDS011;19763;55.798;37.782;2023-08-30T03:56:42;6.57;;;5.88;;
33421;SDS011;19763;55.798;37.782;2023-08-30T03:59:08;7.30;;;6.53;;
33421;SDS011;19763;55.798;37.782;2023-08-30T04:01:33;8.45;;;6.82;;
33421;SDS011;19763;55.798;37.782;2023-08-30T04:03:59;7.90;;;6.43;;
33421;SDS011;19763;55.798;37.782;2023-08-30T04:06:24;7.88;;;6.63;;
33421;SDS011;19763;55.798;37.782;2023-08-30T04:08:50;7.07;;;6.38;;
33421;SDS011;19763;55.798;37.782;2023-08-30T04:11:16;6.93;;;5.95;;
33421;SDS011;19763;55.798;37.782;2023-08-30T04:13:41;6.35;;;5.75;;
33421;SDS011;19763;55.798;37.782;2023-08-30T04:16:07;7.35;;;6.30;;
33421;SDS011;19763;55.798;37.782;2023-08-30T04:18:33;5.80;;;5.30;;
33421;SDS011;19763;55.798;37.782;2023-08-30T04:20:58;6.45;;;5.55;;
33421;SDS011;19763;55.798;37.782;2023-08-30T04:23:24;7.13;;;5.60;;
33421;SDS011;19763;55.798;37.782;2023-08-30T04:25:50;7.03;;;6.22;;
33421;SDS011;19763;55.798;37.782;2023-08-30T04:28:15;6.22;;;5.13;;
33421;SDS011;19763;55.798;37.782;2023-08-30T04:30:41;6.13;;;5.53;;
33421;SDS011;19763;55.798;37.782;2023-08-30T04:33:07;8.07;;;6.72;;
33421;SDS011;19763;55.798;37.782;2023-08-30T04:35:32;7.03;;;5.50;;
33421;SDS011;19763;55.798;37.782;2023-08-30T04:37:59;8.77;;;6.43;;
33421;SDS011;19763;55.798;37.782;2023-08-30T04:40:25;6.20;;;5.60;;
33421;SDS011;19763;55.798;37.782;2023-08-30T04:42:50;7.93;;;5.65;;
33421;SDS011;19763;55.798;37.782;2023-08-30T04:45:16;6.10;;;4.78;;
33421;SDS011;19763;55.798;37.782;2023-08-30T04:47:42;5.43;;;4.63;;
33421;SDS011;19763;55.798;37.782;2023-08-30T04:50:11;5.47;;;4.97;;
33421;SDS011;19763;55.798;37.782;2023-08-30T04:52:36;5.70;;;5.10;;
33421;SDS011;19763;55.798;37.782;2023-08-30T04:55:02;6.63;;;4.85;;
33421;SDS011;19763;55.798;37.782;2023-08-30T04:57:31;5.72;;;4.60;;
33421;SDS011;19763;55.798;37.782;2023-08-30T04:59:56;4.93;;;4.45;;
33421;SDS011;19763;55.798;37.782;2023-08-30T05:02:22;4.53;;;4.13;;
33421;SDS011;19763;55.798;37.782;2023-08-30T05:04:47;5.68;;;4.93;;
33421;SDS011;19763;55.798;37.782;2023-08-30T05:07:13;5.78;;;4.72;;
33421;SDS011;19763;55.798;37.782;2023-08-30T05:09:39;4.50;;;3.95;;
33421;SDS011;19763;55.798;37.782;2023-08-30T05:12:05;5.38;;;4.57;;
33421;SDS011;19763;55.798;37.782;2023-08-30T05:14:32;7.47;;;5.03;;
33421;SDS011;19763;55.798;37.782;2023-08-30T05:16:57;7.70;;;5.45;;
33421;SDS011;19763;55.798;37.782;2023-08-30T05:19:23;8.18;;;5.45;;
33421;SDS011;19763;55.798;37.782;2023-08-30T05:21:49;6.72;;;5.25;;
33421;SDS011;19763;55.798;37.782;2023-08-30T05:24:20;5.00;;;4.32;;
33421;SDS011;19763;55.798;37.782;2023-08-30T05:26:47;6.00;;;5.03;;
33421;SDS011;19763;55.798;37.782;2023-08-30T05:29:14;5.28;;;4.53;;
33421;SDS011;19763;55.798;37.782;2023-08-30T05:31:40;9.82;;;5.05;;
33421;SDS011;19763;55.798;37.782;2023-08-30T05:34:06;5.30;;;4.53;;
33421;SDS011;19763;55.798;37.782;2023-08-30T05:36:32;6.30;;;4.82;;
33421;SDS011;19763;55.798;37.782;2023-08-30T05:38:58;5.95;;;5.13;;
33421;SDS011;19763;55.798;37.782;2023-08-30T05:41:23;8.38;;;6.57;;
33421;SDS011;19763;55.798;37.782;2023-08-30T05:43:50;6.75;;;6.03;;
33421;SDS011;19763;55.798;37.782;2023-08-30T05:46:16;19.95;;;15.90;;
33421;SDS011;19763;55.798;37.782;2023-08-30T05:48:42;7.18;;;5.50;;
33421;SDS011;19763;55.798;37.782;2023-08-30T05:51:08;6.68;;;5.15;;
33421;SDS011;19763;55.798;37.782;2023-08-30T05:53:33;6.07;;;5.47;;
33421;SDS011;19763;55.798;37.782;2023-08-30T05:55:59;6.30;;;5.70;;
33421;SDS011;19763;55.798;37.782;2023-08-30T05:58:25;7.03;;;5.38;;
33421;SDS011;19763;55.798;37.782;2023-08-30T06:00:50;10.68;;;5.90;;
33421;SDS011;19763;55.798;37.782;2023-08-30T06:03:16;6.03;;;5.53;;
33421;SDS011;19763;55.798;37.782;2023-08-30T06:05:42;7.70;;;6.75;;
33421;SDS011;19763;55.798;37.782;2023-08-30T06:08:08;6.88;;;5.95;;
33421;SDS011;19763;55.798;37.782;2023-08-30T06:10:35;7.55;;;6.13;;
33421;SDS011;19763;55.798;37.782;2023-08-30T06:13:01;8.95;;;7.50;;
33421;SDS011;19763;55.798;37.782;2023-08-30T06:15:30;7.30;;;5.38;;
33421;SDS011;19763;55.798;37.782;2023-08-30T06:17:56;6.90;;;6.25;;
33421;SDS011;19763;55.798;37.782;2023-08-30T06:20:21;218.20;;;22.80;;
33421;SDS011;19763;55.798;37.782;2023-08-30T06:22:47;49.17;;;10.55;;
33421;SDS011;19763;55.798;37.782;2023-08-30T06:25:13;7.50;;;6.78;;
33421;SDS011;19763;55.798;37.782;2023-08-30T06:27:42;7.57;;;6.32;;
33421;SDS011;19763;55.798;37.782;2023-08-30T06:30:21;7.65;;;6.85;;
33421;SDS011;19763;55.798;37.782;2023-08-30T06:32:48;7.80;;;6.90;;
33421;SDS011;19763;55.798;37.782;2023-08-30T06:35:14;7.05;;;6.35;;
33421;SDS011;19763;55.798;37.782;2023-08-30T06:37:40;6.75;;;6.05;;
33421;SDS011;19763;55.798;37.782;2023-08-30T06:40:06;12.60;;;6.60;;
33421;SDS011;19763;55.798;37.782;2023-08-30T06:42:32;7.45;;;6.43;;
33421;SDS011;19763;55.798;37.782;2023-08-30T06:44:58;8.75;;;7.85;;
33421;SDS011;19763;55.798;37.782;2023-08-30T06:47:23;7.63;;;6.80;;
33421;SDS011;19763;55.798;37.782;2023-08-30T06:49:49;6.65;;;5.97;;
33421;SDS011;19763;55.798;37.782;2023-08-30T06:52:14;6.90;;;6.20;;
33421;SDS011;19763;55.798;37.782;2023-08-30T06:54:40;8.45;;;6.00;;
33421;SDS011;19763;55.798;37.782;2023-08-30T06:57:06;6.05;;;5.45;;
33421;SDS011;19763;55.798;37.782;2023-08-30T06:59:32;11.40;;;6.18;;
33421;SDS011;19763;55.798;37.782;2023-08-30T07:01:58;6.28;;;5.65;;
33421;SDS011;19763;55.798;37.782;2023-08-30T07:04:24;8.00;;;5.45;;
33421;SDS011;19763;55.798;37.782;2023-08-30T07:06:50;6.63;;;5.55;;
33421;SDS011;19763;55.798;37.782;2023-08-30T07:09:16;6.07;;;5.47;;
33421;SDS011;19763;55.798;37.782;2023-08-30T07:11:42;9.90;;;5.85;;
33421;SDS011;19763;55.798;37.782;2023-08-30T07:14:12;6.13;;;5.10;;
33421;SDS011;19763;55.798;37.782;2023-08-30T07:16:40;4.50;;;4.10;;
33421;SDS011;19763;55.798;37.782;2023-08-30T07:19:06;5.70;;;4.85;;
33421;SDS011;19763;55.798;37.782;2023-08-30T07:21:31;5.35;;;4.75;;
33421;SDS011;19763;55.798;37.782;2023-08-30T07:23:58;6.78;;;4.97;;
33421;SDS011;19763;55.798;37.782;2023-08-30T07:26:24;8.05;;;4.63;;
33421;SDS011;19763;55.798;37.782;2023-08-30T07:28:49;12.30;;;4.85;;
33421;SDS011;19763;55.798;37.782;2023-08-30T07:31:15;5.45;;;4.95;;
33421;SDS011;19763;55.798;37.782;2023-08-30T07:33:43;7.65;;;5.35;;
33421;SDS011;19763;55.798;37.782;2023-08-30T07:36:09;7.45;;;5.15;;
33421;SDS011;19763;55.798;37.782;2023-08-30T07:38:36;5.60;;;5.00;;
33421;SDS011;19763;55.798;37.782;2023-08-30T07:41:02;5.40;;;4.90;;
33421;SDS011;19763;55.798;37.782;2023-08-30T07:43:28;7.25;;;5.22;;
33421;SDS011;19763;55.798;37.782;2023-08-30T07:45:53;6.22;;;5.28;;
33421;SDS011;19763;55.798;37.782;2023-08-30T07:48:19;6.85;;;4.85;;
33421;SDS011;19763;55.798;37.782;2023-08-30T07:50:45;6.70;;;5.20;;
33421;SDS011;19763;55.798;37.782;2023-08-30T07:53:11;6.22;;;4.78;;
33421;SDS011;19763;55.798;37.782;2023-08-30T07:55:37;4.80;;;4.40;;
33421;SDS011;19763;55.798;37.782;2023-08-30T07:58:03;5.65;;;4.85;;
33421;SDS011;19763;55.798;37.782;2023-08-30T08:00:29;5.72;;;4.40;;
33421;SDS011;19763;55.798;37.782;2023-08-30T08:02:55;5.13;;;4.63;;
33421;SDS011;19763;55.798;37.782;2023-08-30T08:05:20;6.50;;;4.53;;
33421;SDS011;19763;55.798;37.782;2023-08-30T08:07:51;4.45;;;3.95;;
33421;SDS011;19763;55.798;37.782;2023-08-30T08:10:19;4.93;;;4.40;;
33421;SDS011;19763;55.798;37.782;2023-08-30T08:12:45;5.20;;;4.22;;
33421;SDS011;19763;55.798;37.782;2023-08-30T08:15:11;4.30;;;3.35;;
33421;SDS011;19763;55.798;37.782;2023-08-30T08:17:36;5.63;;;4.15;;
33421;SDS011;19763;55.798;37.782;2023-08-30T08:20:04;3.63;;;3.22;;
33421;SDS011;19763;55.798;37.782;2023-08-30T08:22:30;5.03;;;3.00;;
33421;SDS011;19763;55.798;37.782;2023-08-30T08:24:56;3.10;;;2.80;;
33421;SDS011;19763;55.798;37.782;2023-08-30T08:27:22;5.43;;;2.70;;
33421;SDS011;19763;55.798;37.782;2023-08-30T08:29:50;4.55;;;3.05;;
33421;SDS011;19763;55.798;37.782;2023-08-30T08:32:16;3.78;;;3.15;;
33421;SDS011;19763;55.798;37.782;2023-08-30T08:34:42;3.15;;;2.85;;
33421;SDS011;19763;55.798;37.782;2023-08-30T08:37:07;6.10;;;4.45;;
33421;SDS011;19763;55.798;37.782;2023-08-30T08:39:33;6.25;;;3.78;;
33421;SDS011;19763;55.798;37.782;2023-08-30T08:41:59;2.83;;;2.63;;
33421;SDS011;19763;55.798;37.782;2023-08-30T08:44:26;2.33;;;2.13;;
33421;SDS011;19763;55.798;37.782;2023-08-30T08:46:56;4.40;;;2.50;;
33421;SDS011;19763;55.798;37.782;2023-08-30T08:49:23;3.78;;;3.08;;
33421;SDS011;19763;55.798;37.782;2023-08-30T08:51:53;3.13;;;2.45;;
33421;SDS011;19763;55.798;37.782;2023-08-30T08:54:19;3.25;;;2.95;;
33421;SDS011;19763;55.798;37.782;2023-08-30T08:56:45;2.83;;;2.40;;
33421;SDS011;19763;55.798;37.782;2023-08-30T08:59:12;5.05;;;2.50;;
33421;SDS011;19763;55.798;37.782;2023-08-30T09:01:38;3.95;;;3.05;;
33421;SDS011;19763;55.798;37.782;2023-08-30T09:04:10;5.28;;;3.00;;
33421;SDS011;19763;55.798;37.782;2023-08-30T09:06:37;3.05;;;2.50;;
33421;SDS011;19763;55.798;37.782;2023-08-30T09:09:05;5.65;;;2.72;;
33421;SDS011;19763;55.798;37.782;2023-08-30T09:11:31;5.88;;;2.67;;
33421;SDS011;19763;55.798;37.782;2023-08-30T09:13:58;2.85;;;2.50;;
33421;SDS011;19763;55.798;37.782;2023-08-30T09:16:23;3.60;;;2.70;;
33421;SDS011;19763;55.798;37.782;2023-08-30T09:18:59;2.72;;;2.53;;
33421;SDS011;19763;55.798;37.782;2023-08-30T09:21:25;2.78;;;2.30;;
33421;SDS011;19763;55.798;37.782;2023-08-30T09:24:01;2.60;;;2.33;;
33421;SDS011;19763;55.798;37.782;2023-08-30T09:26:28;3.97;;;2.83;;
33421;SDS011;19763;55.798;37.782;2023-08-30T09:29:04;4.78;;;2.90;;
33421;SDS011;19763;55.798;37.782;2023-08-30T09:31:37;4.07;;;2.65;;
33421;SDS011;19763;55.798;37.782;2023-08-30T09:34:05;3.05;;;2.78;;
33421;SDS011;19763;55.798;37.782;2023-08-30T09:36:38;2.60;;;2.40;;
33421;SDS011;19763;55.798;37.782;2023-08-30T09:39:08;2.60;;;2.38;;
33421;SDS011;19763;55.798;37.782;2023-08-30T09:41:44;3.08;;;2.60;;
33421;SDS011;19763;55.798;37.782;2023-08-30T09:44:13;3.30;;;2.60;;
33421;SDS011;19763;55.798;37.782;2023-08-30T09:46:43;4.32;;;3.05;;
33421;SDS011;19763;55.798;37.782;2023-08-30T09:49:10;3.65;;;2.72;;
33421;SDS011;19763;55.798;37.782;2023-08-30T09:51:40;4.10;;;3.00;;
33421;SDS011;19763;55.798;37.782;2023-08-30T09:54:14;3.08;;;2.78;;
33421;SDS011;19763;55.798;37.782;2023-08-30T09:56:44;3.17;;;2.60;;
33421;SDS011;19763;55.798;37.782;2023-08-30T09:59:11;3.33;;;2.42;;
33421;SDS011;19763;55.798;37.782;2023-08-30T10:01:40;4.57;;;2.60;;
33421;SDS011;19763;55.798;37.782;2023-08-30T10:04:07;2.95;;;2.60;;
33421;SDS011;19763;55.798;37.782;2023-08-30T10:06:34;3.47;;;3.17;;
33421;SDS011;19763;55.798;37.782;2023-08-30T10:09:01;4.22;;;2.55;;
33421;SDS011;19763;55.798;37.782;2023-08-30T10:11:28;2.67;;;2.47;;
33421;SDS011;19763;55.798;37.782;2023-08-30T10:13:55;4.00;;;2.75;;
33421;SDS011;19763;55.798;37.782;2023-08-30T10:16:22;3.00;;;2.70;;
33421;SDS011;19763;55.798;37.782;2023-08-30T10:18:50;6.20;;;3.53;;
33421;SDS011;19763;55.798;37.782;2023-08-30T10:21:19;23.15;;;5.18;;
33421;SDS011;19763;55.798;37.782;2023-08-30T10:23:47;6.60;;;3.88;;
33421;SDS011;19763;55.798;37.782;2023-08-30T10:26:17;5.65;;;2.70;;
33421;SDS011;19763;55.798;37.782;2023-08-30T10:28:46;7.35;;;3.20;;
33421;SDS011;19763;55.798;37.782;2023-08-30T10:31:13;3.88;;;2.75;;
33421;SDS011;19763;55.798;37.782;2023-08-30T10:36:44;3.55;;;2.85;;
33421;SDS011;19763;55.798;37.782;2023-08-30T10:39:11;6.35;;;3.80;;
33421;SDS011;19763;55.798;37.782;2023-08-30T10:41:37;3.30;;;3.00;;
33421;SDS011;19763;55.798;37.782;2023-08-30T10:44:03;7.20;;;3.00;;
33421;SDS011;19763;55.798;37.782;2023-08-30T10:46:30;2.80;;;2.60;;
33421;SDS011;19763;55.798;37.782;2023-08-30T10:49:07;3.22;;;2.92;;
33421;SDS011;19763;55.798;37.782;2023-08-30T10:51:40;3.58;;;2.92;;
33421;SDS011;19763;55.798;37.782;2023-08-30T10:54:16;5.72;;;3.50;;
33421;SDS011;19763;55.798;37.782;2023-08-30T10:57:00;5.40;;;3.10;;
33421;SDS011;19763;55.798;37.782;2023-08-30T10:59:28;4.40;;;3.00;;
33421;SDS011;19763;55.798;37.782;2023-08-30T11:01:55;3.38;;;2.63;;
33421;SDS011;19763;55.798;37.782;2023-08-30T11:04:21;3.42;;;2.83;;
33421;SDS011;19763;55.798;37.782;2023-08-30T11:06:48;3.65;;;3.00;;
33421;SDS011;19763;55.798;37.782;2023-08-30T11:09:16;5.38;;;3.22;;
33421;SDS011;19763;55.798;37.782;2023-08-30T11:11:44;3.72;;;2.90;;
33421;SDS011;19763;55.798;37.782;2023-08-30T11:14:11;3.25;;;2.80;;
33421;SDS011;19763;55.798;37.782;2023-08-30T11:16:37;4.65;;;2.92;;
33421;SDS011;19763;55.798;37.782;2023-08-30T11:19:04;3.90;;;2.80;;
33421;SDS011;19763;55.798;37.782;2023-08-30T11:21:31;3.53;;;2.80;;
33421;SDS011;19763;55.798;37.782;2023-08-30T11:23:58;4.13;;;2.97;;
33421;SDS011;19763;55.798;37.782;2023-08-30T11:26:24;8.48;;;7.10;;
33421;SDS011;19763;55.798;37.782;2023-08-30T11:28:50;3.20;;;2.90;;
33421;SDS011;19763;55.798;37.782;2023-08-30T11:31:21;5.45;;;3.03;;
33421;SDS011;19763;55.798;37.782;2023-08-30T11:33:54;3.22;;;2.80;;
33421;SDS011;19763;55.798;37.782;2023-08-30T11:36:21;3.13;;;2.80;;
33421;SDS011;19763;55.798;37.782;2023-08-30T11:38:49;3.50;;;3.20;;
33421;SDS011;19763;55.798;37.782;2023-08-30T11:41:15;3.95;;;2.97;;
33421;SDS011;19763;55.798;37.782;2023-08-30T11:43:42;5.65;;;2.75;;
33421;SDS011;19763;55.798;37.782;2023-08-30T11:46:09;4.03;;;2.60;;
33421;SDS011;19763;55.798;37.782;2023-08-30T11:48:35;3.05;;;2.75;;
33421;SDS011;19763;55.798;37.782;2023-08-30T11:51:01;4.25;;;3.38;;
33421;SDS011;19763;55.798;37.782;2023-08-30T11:53:27;4.00;;;2.90;;
33421;SDS011;19763;55.798;37.782;2023-08-30T11:55:53;4.28;;;3.30;;
33421;SDS011;19763;55.798;37.782;2023-08-30T11:58:18;5.68;;;2.75;;
33421;SDS011;19763;55.798;37.782;2023-08-30T12:00:45;4.90;;;3.45;;
33421;SDS011;19763;55.798;37.782;2023-08-30T12:03:14;5.30;;;3.20;;
33421;SDS011;19763;55.798;37.782;2023-08-30T12:05:49;6.82;;;4.53;;
33421;SDS011;19763;55.798;37.782;2023-08-30T12:08:19;3.38;;;2.92;;
33421;SDS011;19763;55.798;37.782;2023-08-30T12:10:46;6.45;;;4.70;;
33421;SDS011;19763;55.798;37.782;2023-08-30T12:13:24;7.40;;;3.40;;
33421;SDS011;19763;55.798;37.782;2023-08-30T12:15:51;4.35;;;3.35;;
33421;SDS011;19763;55.798;37.782;2023-08-30T12:18:22;4.35;;;2.85;;
33421;SDS011;19763;55.798;37.782;2023-08-30T12:20:55;3.60;;;3.22;;
33421;SDS011;19763;55.798;37.782;2023-08-30T12:23:23;6.20;;;3.17;;
33421;SDS011;19763;55.798;37.782;2023-08-30T12:28:25;3.85;;;3.13;;
33421;SDS011;19763;55.798;37.782;2023-08-30T12:30:52;3.50;;;3.15;;
33421;SDS011;19763;55.798;37.782;2023-08-30T12:33:18;5.13;;;3.13;;
33421;SDS011;19763;55.798;37.782;2023-08-30T12:35:47;5.15;;;3.20;;
33421;SDS011;19763;55.798;37.782;2023-08-30T12:38:13;9.93;;;3.10;;
33421;SDS011;19763;55.798;37.782;2023-08-30T12:40:46;5.82;;;3.03;;
33421;SDS011;19763;55.798;37.782;2023-08-30T12:43:14;6.72;;;3.38;;
33421;SDS011;19763;55.798;37.782;2023-08-30T12:45:40;4.40;;;3.00;;
33421;SDS011;19763;55.798;37.782;2023-08-30T12:48:07;3.85;;;3.47;;
33421;SDS011;19763;55.798;37.782;2023-08-30T12:50:37;4.80;;;3.15;;
33421;SDS011;19763;55.798;37.782;2023-08-30T12:53:06;4.57;;;3.13;;
33421;SDS011;19763;55.798;37.782;2023-08-30T12:55:33;4.07;;;3.00;;
33421;SDS011;19763;55.798;37.782;2023-08-30T12:57:59;4.80;;;3.45;;
33421;SDS011;19763;55.798;37.782;2023-08-30T13:00:26;3.63;;;3.13;;
33421;SDS011;19763;55.798;37.782;2023-08-30T13:02:52;5.53;;;3.05;;
33421;SDS011;19763;55.798;37.782;2023-08-30T13:05:18;3.78;;;3.38;;
33421;SDS011;19763;55.798;37.782;2023-08-30T13:07:44;3.65;;;3.00;;
33421;SDS011;19763;55.798;37.782;2023-08-30T13:10:10;4.28;;;3.15;;
33421;SDS011;19763;55.798;37.782;2023-08-30T13:12:36;7.80;;;3.70;;
33421;SDS011;19763;55.798;37.782;2023-08-30T13:15:02;6.43;;;3.25;;
33421;SDS011;19763;55.798;37.782;2023-08-30T13:17:32;3.63;;;2.80;;
33421;SDS011;19763;55.798;37.782;2023-08-30T13:19:58;5.18;;;3.17;;
33421;SDS011;19763;55.798;37.782;2023-08-30T13:22:24;3.80;;;3.05;;
33421;SDS011;19763;55.798;37.782;2023-08-30T13:24:51;5.13;;;3.25;;
33421;SDS011;19763;55.798;37.782;2023-08-30T13:27:17;3.70;;;2.92;;
33421;SDS011;19763;55.798;37.782;2023-08-30T13:29:43;4.85;;;3.05;;
33421;SDS011;19763;55.798;37.782;2023-08-30T13:32:09;4.07;;;3.15;;
33421;SDS011;19763;55.798;37.782;2023-08-30T13:34:35;3.70;;;3.20;;
33421;SDS011;19763;55.798;37.782;2023-08-30T13:37:00;4.75;;;3.20;;
33421;SDS011;19763;55.798;37.782;2023-08-30T13:39:26;3.90;;;3.22;;
33421;SDS011;19763;55.798;37.782;2023-08-30T13:41:52;7.13;;;3.17;;
33421;SDS011;19763;55.798;37.782;2023-08-30T13:44:17;4.15;;;3.33;;
33421;SDS011;19763;55.798;37.782;2023-08-30T13:46:43;5.63;;;3.30;;
33421;SDS011;19763;55.798;37.782;2023-08-30T13:49:09;3.42;;;3.13;;
33421;SDS011;19763;55.798;37.782;2023-08-30T13:51:35;3.45;;;3.10;;
33421;SDS011;19763;55.798;37.782;2023-08-30T13:54:02;7.10;;;2.78;;
33421;SDS011;19763;55.798;37.782;2023-08-30T13:56:27;5.10;;;3.25;;
33421;SDS011;19763;55.798;37.782;2023-08-30T13:58:55;4.13;;;3.03;;
33421;SDS011;19763;55.798;37.782;2023-08-30T14:01:22;3.78;;;3.10;;
33421;SDS011;19763;55.798;37.782;2023-08-30T14:03:47;3.70;;;3.20;;
33421;SDS011;19763;55.798;37.782;2023-08-30T14:06:13;4.28;;;3.08;;
33421;SDS011;19763;55.798;37.782;2023-08-30T14:08:39;3.35;;;2.95;;
33421;SDS011;19763;55.798;37.782;2023-08-30T14:11:05;3.88;;;2.92;;
33421;SDS011;19763;55.798;37.782;2023-08-30T14:13:31;3.97;;;2.88;;
33421;SDS011;19763;55.798;37.782;2023-08-30T14:15:59;4.95;;;3.28;;
33421;SDS011;19763;55.798;37.782;2023-08-30T14:18:25;3.92;;;2.90;;
33421;SDS011;19763;55.798;37.782;2023-08-30T14:20:54;4.00;;;2.88;;
33421;SDS011;19763;55.798;37.782;2023-08-30T14:23:23;6.00;;;3.10;;
33421;SDS011;19763;55.798;37.782;2023-08-30T14:26:10;3.75;;;2.95;;
33421;SDS011;19763;55.798;37.782;2023-08-30T14:28:37;5.00;;;3.30;;
33421;SDS011;19763;55.798;37.782;2023-08-30T14:31:08;4.57;;;3.13;;
33421;SDS011;19763;55.798;37.782;2023-08-30T14:33:37;4.43;;;2.92;;
33421;SDS011;19763;55.798;37.782;2023-08-30T14:36:08;6.00;;;3.58;;
33421;SDS011;19763;55.798;37.782;2023-08-30T14:38:35;4.15;;;2.80;;